Time;durP1;ratioP1;P1;durP2;ratioP2;P2;SDS_P1;SDS_P2;PMS_P1;PMS_P2;Temp;Humidity;BMP_temperature;BMP_pressure;BME280_temperature;BME280_humidity;BME280_pressure;Samples;Min_cycle;Max_cycle;Signal;HPM_P1;HPM_P2
2022/09/06 00:02:48;;;;;;;4.10;2.40;;;;;;;;;;5040733;28;20464;-69
2022/09/06 00:05:35;;;;;;;3.40;2.47;;;;;;;;;;5038666;28;20423;-68
2022/09/06 00:08:19;;;;;;;3.60;2.35;;;;;;;;;;5032098;28;20144;-68
2022/09/06 00:11:04;;;;;;;2.85;2.00;;;;;;;;;;5041617;28;20508;-68
2022/09/06 00:13:49;;;;;;;3.25;2.08;;;;;;;;;;5038752;28;20481;-69
2022/09/06 00:16:34;;;;;;;4.75;2.78;;;;;;;;;;5047194;28;20061;-68
2022/09/06 00:19:18;;;;;;;3.15;2.50;;;;;;;;;;5042155;28;20131;-69
2022/09/06 00:22:03;;;;;;;3.03;2.22;;;;;;;;;;5043450;28;20111;-69
2022/09/06 00:24:47;;;;;;;3.28;2.45;;;;;;;;;;5034900;28;20037;-68
2022/09/06 00:27:33;;;;;;;3.63;2.55;;;;;;;;;;5031679;28;20049;-69
2022/09/06 00:30:17;;;;;;;3.33;2.42;;;;;;;;;;5059396;28;20091;-69
2022/09/06 00:33:02;;;;;;;3.67;2.25;;;;;;;;;;5042706;28;20482;-67
2022/09/06 00:35:48;;;;;;;4.75;2.40;;;;;;;;;;5057917;28;20464;-68
2022/09/06 00:38:33;;;;;;;2.60;2.10;;;;;;;;;;5043480;28;20044;-68
2022/09/06 00:41:17;;;;;;;3.85;2.55;;;;;;;;;;5047227;28;20120;-68
2022/09/06 00:44:02;;;;;;;4.47;2.58;;;;;;;;;;5045292;28;20870;-68
2022/09/06 00:46:47;;;;;;;4.03;2.30;;;;;;;;;;5036522;28;20412;-68
2022/09/06 00:49:33;;;;;;;3.78;2.15;;;;;;;;;;5047964;28;20041;-68
2022/09/06 00:52:18;;;;;;;3.33;2.30;;;;;;;;;;5047596;28;20656;-67
2022/09/06 00:55:03;;;;;;;2.92;2.58;;;;;;;;;;5043924;28;20373;-68
2022/09/06 00:57:50;;;;;;;3.60;2.30;;;;;;;;;;5043447;28;20136;-69
2022/09/06 01:00:34;;;;;;;2.70;1.95;;;;;;;;;;5042854;28;20300;-70
2022/09/06 01:03:20;;;;;;;5.10;2.38;;;;;;;;;;5044136;28;20124;-70
2022/09/06 01:06:08;;;;;;;5.43;2.58;;;;;;;;;;5046193;28;20040;-69
2022/09/06 01:09:07;;;;;;;4.88;2.58;;;;;;;;;;5036234;28;20118;-69
2022/09/06 01:11:55;;;;;;;3.67;2.40;;;;;;;;;;5047660;28;20039;-69
2022/09/06 01:14:57;;;;;;;4.57;2.53;;;;;;;;;;5048452;28;20384;-69
2022/09/06 01:17:45;;;;;;;4.35;2.70;;;;;;;;;;5040420;28;20128;-68
2022/09/06 01:20:48;;;;;;;4.00;2.60;;;;;;;;;;5033129;28;20045;-69
2022/09/06 01:23:45;;;;;;;4.72;2.25;;;;;;;;;;5033675;28;20037;-69
2022/09/06 01:26:32;;;;;;;3.67;2.35;;;;;;;;;;5030456;28;20098;-69
2022/09/06 01:29:32;;;;;;;3.67;2.47;;;;;;;;;;5045599;28;20057;-69
2022/09/06 01:32:25;;;;;;;4.13;2.50;;;;;;;;;;5041593;28;20056;-69
2022/09/06 01:35:28;;;;;;;2.88;2.28;;;;;;;;;;5032468;28;20422;-69
2022/09/06 01:38:13;;;;;;;3.78;2.47;;;;;;;;;;5046452;28;20047;-69
2022/09/06 01:40:58;;;;;;;3.45;2.47;;;;;;;;;;5045094;28;20040;-69
2022/09/06 01:43:44;;;;;;;3.85;2.40;;;;;;;;;;5058737;28;20041;-69
2022/09/06 01:46:32;;;;;;;3.65;2.45;;;;;;;;;;5059315;28;20053;-69
2022/09/06 01:49:35;;;;;;;3.90;2.50;;;;;;;;;;5045838;28;20448;-69
2022/09/06 01:52:46;;;;;;;2.85;2.20;;;;;;;;;;5041605;28;20423;-69
2022/09/06 01:55:39;;;;;;;3.30;2.45;;;;;;;;;;5041933;28;20155;-68
2022/09/06 01:58:36;;;;;;;4.40;2.33;;;;;;;;;;5048219;28;20115;-69
2022/09/06 02:01:28;;;;;;;2.95;2.40;;;;;;;;;;5045396;28;20045;-69
2022/09/06 02:04:26;;;;;;;3.08;2.30;;;;;;;;;;5052034;28;20082;-69
2022/09/06 02:07:19;;;;;;;3.40;2.38;;;;;;;;;;5051928;28;20037;-68
2022/09/06 02:10:12;;;;;;;3.22;2.38;;;;;;;;;;5052150;28;20432;-69
2022/09/06 02:13:00;;;;;;;3.17;2.13;;;;;;;;;;5041398;28;20040;-68
2022/09/06 02:15:48;;;;;;;2.92;2.40;;;;;;;;;;5048274;28;20472;-68
2022/09/06 02:18:34;;;;;;;6.80;2.30;;;;;;;;;;5039376;28;20076;-69
2022/09/06 02:21:21;;;;;;;3.47;2.45;;;;;;;;;;5044937;28;20532;-69
2022/09/06 02:24:08;;;;;;;3.10;2.03;;;;;;;;;;5049197;28;20049;-68
2022/09/06 02:26:53;;;;;;;3.15;1.83;;;;;;;;;;5039552;28;20068;-69
2022/09/06 02:29:38;;;;;;;12.02;2.88;;;;;;;;;;5046218;28;20041;-69
2022/09/06 02:32:24;;;;;;;6.57;2.53;;;;;;;;;;5049025;28;20033;-69
2022/09/06 02:35:12;;;;;;;3.95;2.20;;;;;;;;;;5051186;28;20029;-68
2022/09/06 02:37:56;;;;;;;4.05;2.33;;;;;;;;;;5046338;28;20043;-69
2022/09/06 02:40:42;;;;;;;3.33;2.17;;;;;;;;;;5042408;28;20469;-69
2022/09/06 02:43:26;;;;;;;3.15;2.00;;;;;;;;;;5048331;28;20453;-69
2022/09/06 02:46:11;;;;;;;3.38;2.10;;;;;;;;;;5040345;28;20079;-68
2022/09/06 02:48:56;;;;;;;4.60;2.25;;;;;;;;;;5022534;28;20070;-69
2022/09/06 02:51:40;;;;;;;4.97;2.72;;;;;;;;;;5049331;28;20034;-68
2022/09/06 02:54:25;;;;;;;5.82;2.30;;;;;;;;;;5049807;28;20045;-68
2022/09/06 02:57:10;;;;;;;3.30;2.40;;;;;;;;;;5047379;28;20041;-68
2022/09/06 02:59:54;;;;;;;3.05;2.17;;;;;;;;;;5045087;28;20087;-68
2022/09/06 03:02:38;;;;;;;3.20;2.10;;;;;;;;;;5044345;28;20135;-68
2022/09/06 03:05:24;;;;;;;2.70;2.10;;;;;;;;;;5043810;28;20099;-68
2022/09/06 03:08:08;;;;;;;3.17;2.30;;;;;;;;;;5045470;28;20109;-69
2022/09/06 03:10:54;;;;;;;3.83;2.40;;;;;;;;;;5041911;28;20063;-68
2022/09/06 03:13:41;;;;;;;3.10;2.20;;;;;;;;;;5042729;28;20041;-68
2022/09/06 03:16:31;;;;;;;3.00;2.40;;;;;;;;;;5044471;28;20132;-68
2022/09/06 03:19:15;;;;;;;3.70;2.70;;;;;;;;;;5043715;28;20397;-70
2022/09/06 03:21:59;;;;;;;3.85;2.40;;;;;;;;;;5046686;28;20487;-68
2022/09/06 03:24:44;;;;;;;2.17;1.98;;;;;;;;;;5046172;28;20033;-69
2022/09/06 03:27:29;;;;;;;4.63;2.33;;;;;;;;;;5039333;28;20503;-68
2022/09/06 03:30:13;;;;;;;3.80;2.40;;;;;;;;;;5048865;28;20037;-69
2022/09/06 03:33:00;;;;;;;3.22;2.38;;;;;;;;;;5046561;28;20132;-69
2022/09/06 03:35:49;;;;;;;3.13;2.15;;;;;;;;;;5043731;28;20056;-69
2022/09/06 03:38:35;;;;;;;3.08;1.92;;;;;;;;;;5033929;28;20481;-69
2022/09/06 03:41:19;;;;;;;3.28;2.42;;;;;;;;;;5051879;28;20044;-71
2022/09/06 03:44:04;;;;;;;4.22;2.40;;;;;;;;;;5042753;28;20115;-69
2022/09/06 03:46:50;;;;;;;3.03;2.28;;;;;;;;;;5036941;28;20072;-69
2022/09/06 03:49:34;;;;;;;2.97;2.25;;;;;;;;;;5031759;28;20041;-69
2022/09/06 03:52:19;;;;;;;5.30;2.15;;;;;;;;;;5037380;28;20091;-68
2022/09/06 03:55:04;;;;;;;3.05;2.17;;;;;;;;;;5038989;28;20039;-70
2022/09/06 03:57:49;;;;;;;4.32;2.00;;;;;;;;;;5050435;28;20044;-69
2022/09/06 04:00:34;;;;;;;3.17;2.20;;;;;;;;;;5049991;28;20139;-69
2022/09/06 04:03:19;;;;;;;4.57;2.20;;;;;;;;;;5040611;28;20160;-67
2022/09/06 04:06:04;;;;;;;3.20;2.20;;;;;;;;;;5047854;28;20048;-66
2022/09/06 04:08:49;;;;;;;3.72;2.60;;;;;;;;;;5035941;28;20041;-65
2022/09/06 04:11:33;;;;;;;3.42;2.65;;;;;;;;;;5029194;28;20088;-67
2022/09/06 04:14:17;;;;;;;4.95;2.70;;;;;;;;;;5038458;28;20692;-66
2022/09/06 04:17:02;;;;;;;3.17;2.30;;;;;;;;;;5038759;28;20177;-66
2022/09/06 04:19:46;;;;;;;3.40;2.50;;;;;;;;;;5041242;28;20037;-65
2022/09/06 04:22:30;;;;;;;4.88;2.58;;;;;;;;;;5048669;28;20051;-65
2022/09/06 04:25:15;;;;;;;4.15;2.60;;;;;;;;;;5044862;28;20083;-66
2022/09/06 04:28:00;;;;;;;3.72;2.28;;;;;;;;;;5049618;28;20487;-66
2022/09/06 04:30:55;;;;;;;3.83;2.72;;;;;;;;;;5044560;28;20040;-67
2022/09/06 04:33:40;;;;;;;9.52;3.50;;;;;;;;;;5062142;28;20149;-68
2022/09/06 04:36:24;;;;;;;5.20;2.75;;;;;;;;;;5044317;28;20164;-68
2022/09/06 04:39:08;;;;;;;4.93;2.60;;;;;;;;;;5044314;28;20518;-68
2022/09/06 04:41:54;;;;;;;4.93;3.03;;;;;;;;;;5039481;28;20079;-67
2022/09/06 04:44:41;;;;;;;4.55;2.92;;;;;;;;;;5034237;28;20037;-68
2022/09/06 04:47:26;;;;;;;4.10;2.35;;;;;;;;;;5044139;28;20120;-68
2022/09/06 04:50:10;;;;;;;4.68;2.70;;;;;;;;;;5042035;28;20053;-66
2022/09/06 04:52:56;;;;;;;3.30;2.63;;;;;;;;;;5037535;28;20103;-69
2022/09/06 04:55:40;;;;;;;4.10;2.65;;;;;;;;;;5036543;28;20063;-69
2022/09/06 04:58:25;;;;;;;3.33;2.70;;;;;;;;;;5047634;28;20477;-67
2022/09/06 05:01:09;;;;;;;6.05;2.75;;;;;;;;;;5044148;28;20048;-67
2022/09/06 05:03:54;;;;;;;6.07;3.30;;;;;;;;;;5055647;28;20198;-69
2022/09/06 05:06:42;;;;;;;3.90;2.58;;;;;;;;;;5048191;28;20044;-69
2022/09/06 05:09:28;;;;;;;7.28;3.25;;;;;;;;;;5056109;28;20036;-66
2022/09/06 05:12:13;;;;;;;5.25;2.55;;;;;;;;;;5050383;28;20120;-68
2022/09/06 05:14:57;;;;;;;2.90;2.28;;;;;;;;;;5057494;28;20131;-68
2022/09/06 05:17:41;;;;;;;4.35;3.00;;;;;;;;;;5057590;28;20160;-67
2022/09/06 05:20:26;;;;;;;5.32;3.28;;;;;;;;;;5065129;28;20056;-68
2022/09/06 05:23:11;;;;;;;7.20;2.60;;;;;;;;;;5046692;28;20195;-67
2022/09/06 05:25:55;;;;;;;3.45;2.45;;;;;;;;;;5065814;28;20151;-68
2022/09/06 05:28:39;;;;;;;4.13;2.47;;;;;;;;;;5052338;28;20045;-68
2022/09/06 05:31:28;;;;;;;4.20;2.70;;;;;;;;;;5035562;28;20148;-67
2022/09/06 05:34:13;;;;;;;4.82;2.40;;;;;;;;;;5036791;28;20068;-68
2022/09/06 05:36:58;;;;;;;3.92;2.78;;;;;;;;;;5044997;28;20044;-67
2022/09/06 05:39:42;;;;;;;4.45;2.30;;;;;;;;;;5031964;28;20711;-67
2022/09/06 05:42:27;;;;;;;4.22;2.38;;;;;;;;;;5033463;28;20067;-67
2022/09/06 05:45:12;;;;;;;3.75;2.63;;;;;;;;;;5039747;28;20056;-67
2022/09/06 05:47:56;;;;;;;2.70;2.15;;;;;;;;;;5046500;28;20041;-67
2022/09/06 05:50:41;;;;;;;3.28;2.33;;;;;;;;;;5048534;28;20266;-67
2022/09/06 05:53:25;;;;;;;4.20;2.28;;;;;;;;;;5044340;28;20065;-67
2022/09/06 05:56:11;;;;;;;3.92;2.40;;;;;;;;;;5047991;28;20147;-68
2022/09/06 05:58:55;;;;;;;3.58;2.20;;;;;;;;;;5047318;28;20114;-67
2022/09/06 06:01:47;;;;;;;4.10;2.42;;;;;;;;;;5039919;28;20120;-68
2022/09/06 06:04:31;;;;;;;4.25;2.70;;;;;;;;;;5044545;28;20059;-69
2022/09/06 06:07:15;;;;;;;3.67;2.67;;;;;;;;;;5038247;28;20127;-68
2022/09/06 06:10:00;;;;;;;2.83;2.22;;;;;;;;;;5048718;28;20528;-67
2022/09/06 06:12:44;;;;;;;3.55;2.17;;;;;;;;;;5037934;28;20048;-68
2022/09/06 06:15:28;;;;;;;4.95;2.58;;;;;;;;;;5051692;28;20073;-67
2022/09/06 06:18:13;;;;;;;7.80;2.47;;;;;;;;;;5052426;28;20041;-67
2022/09/06 06:21:07;;;;;;;3.75;2.42;;;;;;;;;;5051092;28;20037;-66
2022/09/06 06:23:53;;;;;;;5.53;3.13;;;;;;;;;;5051876;28;20033;-67
2022/09/06 06:26:37;;;;;;;6.30;2.97;;;;;;;;;;5077837;28;20111;-66
2022/09/06 06:29:24;;;;;;;3.92;2.50;;;;;;;;;;5043613;28;20112;-67
2022/09/06 06:32:08;;;;;;;5.20;2.90;;;;;;;;;;5047744;28;20128;-69
2022/09/06 06:34:52;;;;;;;4.40;2.58;;;;;;;;;;5075724;28;20096;-64
2022/09/06 06:37:36;;;;;;;4.38;2.58;;;;;;;;;;5051600;28;20396;-62
2022/09/06 06:40:21;;;;;;;2.90;2.17;;;;;;;;;;5045470;28;20045;-64
2022/09/06 06:43:05;;;;;;;5.50;3.50;;;;;;;;;;5050610;28;20502;-67
2022/09/06 06:45:53;;;;;;;6.00;2.50;;;;;;;;;;5038035;28;20049;-60
2022/09/06 06:48:40;;;;;;;2.78;2.20;;;;;;;;;;5050946;28;20037;-61
2022/09/06 06:51:25;;;;;;;3.28;2.55;;;;;;;;;;5045703;28;20029;-60
2022/09/06 06:54:10;;;;;;;4.10;2.85;;;;;;;;;;5050642;28;20099;-61
2022/09/06 06:56:55;;;;;;;8.35;3.03;;;;;;;;;;5064244;28;20063;-62
2022/09/06 06:59:39;;;;;;;5.10;3.03;;;;;;;;;;5049831;28;20411;-59
2022/09/06 07:02:23;;;;;;;3.97;2.40;;;;;;;;;;5047559;28;20041;-60
2022/09/06 07:05:09;;;;;;;4.20;2.80;;;;;;;;;;5069338;28;20041;-61
2022/09/06 07:07:54;;;;;;;3.97;2.63;;;;;;;;;;5046125;28;20362;-61
2022/09/06 07:10:38;;;;;;;5.32;2.58;;;;;;;;;;5035030;28;20037;-67
2022/09/06 07:13:23;;;;;;;5.03;2.50;;;;;;;;;;5041055;28;20519;-67
2022/09/06 07:16:12;;;;;;;5.35;2.72;;;;;;;;;;5045508;28;20048;-66
2022/09/06 07:18:57;;;;;;;4.03;2.90;;;;;;;;;;5047583;28;20116;-65
2022/09/06 07:21:41;;;;;;;3.47;2.15;;;;;;;;;;5049284;28;20048;-67
2022/09/06 07:24:26;;;;;;;4.65;2.67;;;;;;;;;;5037098;28;20120;-66
2022/09/06 07:27:10;;;;;;;4.88;3.22;;;;;;;;;;5066566;28;20468;-66
2022/09/06 07:29:55;;;;;;;5.68;3.08;;;;;;;;;;5046794;28;20037;-65
2022/09/06 07:32:39;;;;;;;8.02;3.50;;;;;;;;;;5042796;28;20489;-67
2022/09/06 07:35:25;;;;;;;5.00;2.53;;;;;;;;;;5044044;28;20054;-67
2022/09/06 07:38:13;;;;;;;5.18;2.67;;;;;;;;;;5043582;28;20053;-69
2022/09/06 07:40:59;;;;;;;3.95;2.42;;;;;;;;;;5049840;28;20475;-67
2022/09/06 07:43:44;;;;;;;5.32;3.25;;;;;;;;;;5043718;28;20552;-67
2022/09/06 07:46:29;;;;;;;6.20;3.00;;;;;;;;;;5046458;28;20061;-67
2022/09/06 07:49:13;;;;;;;5.30;3.20;;;;;;;;;;5049640;28;20487;-68
2022/09/06 07:51:58;;;;;;;7.70;3.65;;;;;;;;;;5042201;28;20112;-68
2022/09/06 07:54:42;;;;;;;6.93;3.15;;;;;;;;;;5043508;28;20525;-67
2022/09/06 07:57:26;;;;;;;3.40;2.55;;;;;;;;;;5026826;28;20052;-68
2022/09/06 08:00:11;;;;;;;6.93;3.08;;;;;;;;;;5044920;28;20033;-68
2022/09/06 08:02:59;;;;;;;5.22;3.20;;;;;;;;;;5041292;28;20411;-68
2022/09/06 08:05:47;;;;;;;5.95;3.08;;;;;;;;;;5043749;28;20123;-66
2022/09/06 08:08:31;;;;;;;13.93;3.13;;;;;;;;;;5041533;28;20041;-67
2022/09/06 08:11:15;;;;;;;6.47;3.30;;;;;;;;;;5047188;28;20056;-68
2022/09/06 08:14:01;;;;;;;6.65;3.92;;;;;;;;;;5041763;28;20140;-68
2022/09/06 08:16:45;;;;;;;4.90;3.03;;;;;;;;;;5040707;28;20456;-59
2022/09/06 08:19:30;;;;;;;4.95;3.25;;;;;;;;;;5073409;28;20099;-70
2022/09/06 08:22:15;;;;;;;7.47;3.20;;;;;;;;;;5048334;28;20483;-70
2022/09/06 08:25:00;;;;;;;5.88;3.10;;;;;;;;;;5050836;28;20045;-70
2022/09/06 08:27:45;;;;;;;4.45;3.10;;;;;;;;;;5042302;28;20572;-64
2022/09/06 08:30:31;;;;;;;8.93;3.22;;;;;;;;;;5045062;28;20036;-69
2022/09/06 08:33:19;;;;;;;6.75;3.13;;;;;;;;;;5039776;28;20047;-70
2022/09/06 08:36:04;;;;;;;6.00;2.85;;;;;;;;;;5044256;28;20044;-69
2022/09/06 08:38:48;;;;;;;5.78;2.83;;;;;;;;;;5034592;28;20037;-70
2022/09/06 08:41:36;;;;;;;5.28;2.80;;;;;;;;;;5044270;28;20044;-70
2022/09/06 08:44:39;;;;;;;5.22;3.05;;;;;;;;;;5044693;28;20445;-72
2022/09/06 08:47:25;;;;;;;6.85;2.67;;;;;;;;;;5034786;28;20073;-71
2022/09/06 08:50:10;;;;;;;4.90;2.75;;;;;;;;;;5041238;28;20481;-70
2022/09/06 08:53:03;;;;;;;5.03;3.05;;;;;;;;;;5043057;28;20115;-70
2022/09/06 08:56:07;;;;;;;3.70;2.80;;;;;;;;;;5044234;28;20040;-61
2022/09/06 08:59:05;;;;;;;6.72;3.53;;;;;;;;;;5033915;28;20098;-69
2022/09/06 09:02:02;;;;;;;3.38;2.70;;;;;;;;;;5040293;28;20064;-69
2022/09/06 09:04:52;;;;;;;5.13;2.85;;;;;;;;;;5044480;28;20045;-68
2022/09/06 09:07:42;;;;;;;4.65;2.80;;;;;;;;;;5042318;28;20107;-70
2022/09/06 09:10:28;;;;;;;6.68;3.08;;;;;;;;;;5048747;28;20451;-70
2022/09/06 09:13:17;;;;;;;4.38;3.10;;;;;;;;;;5044446;28;20035;-69
2022/09/06 09:16:02;;;;;;;4.70;2.70;;;;;;;;;;5037323;28;20041;-58
2022/09/06 09:18:50;;;;;;;5.32;3.47;;;;;;;;;;5038709;28;20127;-63
2022/09/06 09:21:39;;;;;;;12.02;3.90;;;;;;;;;;5043990;28;20438;-65
2022/09/06 09:24:23;;;;;;;4.45;3.00;;;;;;;;;;5048040;28;20045;-65
2022/09/06 09:27:10;;;;;;;7.20;3.00;;;;;;;;;;5048146;28;20135;-64
2022/09/06 09:29:58;;;;;;;3.58;2.42;;;;;;;;;;5046011;28;20059;-64
2022/09/06 09:32:43;;;;;;;4.13;2.67;;;;;;;;;;5044754;28;20033;-64
2022/09/06 09:35:32;;;;;;;6.78;3.58;;;;;;;;;;5039464;28;20046;-63
2022/09/06 09:38:33;;;;;;;4.53;2.70;;;;;;;;;;5040744;28;20033;-64
2022/09/06 09:41:32;;;;;;;6.43;3.30;;;;;;;;;;5038999;28;20356;-64
2022/09/06 09:44:17;;;;;;;6.53;4.00;;;;;;;;;;5072780;28;20045;-63
2022/09/06 09:47:20;;;;;;;4.85;3.28;;;;;;;;;;5044542;28;20125;-64
2022/09/06 09:50:20;;;;;;;5.35;3.05;;;;;;;;;;5039041;28;20051;-64
2022/09/06 09:53:13;;;;;;;6.25;2.85;;;;;;;;;;5045278;28;20037;-63
2022/09/06 09:55:58;;;;;;;4.90;2.85;;;;;;;;;;5048085;28;20138;-64
2022/09/06 09:58:42;;;;;;;4.07;2.88;;;;;;;;;;5051573;28;20640;-64
2022/09/06 10:01:32;;;;;;;3.92;3.17;;;;;;;;;;5050541;28;20041;-64
2022/09/06 10:04:23;;;;;;;3.88;2.85;;;;;;;;;;5049548;28;20698;-64
2022/09/06 10:07:10;;;;;;;9.50;3.20;;;;;;;;;;5046875;28;20040;-63
2022/09/06 10:10:12;;;;;;;5.45;2.80;;;;;;;;;;5050780;28;20037;-63
2022/09/06 10:13:07;;;;;;;4.38;3.13;;;;;;;;;;5041163;28;20128;-64
2022/09/06 10:15:52;;;;;;;3.42;2.70;;;;;;;;;;5050199;28;20126;-65
2022/09/06 10:18:41;;;;;;;6.25;3.22;;;;;;;;;;5046081;28;20057;-63
2022/09/06 10:21:28;;;;;;;4.35;3.08;;;;;;;;;;5049527;28;20516;-63
2022/09/06 10:24:42;;;;;;;6.60;2.90;;;;;;;;;;5040657;28;20112;-64
2022/09/06 10:27:27;;;;;;;7.65;2.88;;;;;;;;;;5024988;28;20244;-64
2022/09/06 10:30:13;;;;;;;5.18;2.80;;;;;;;;;;5029111;28;20033;-63
2022/09/06 10:33:03;;;;;;;4.90;2.83;;;;;;;;;;5028609;28;20048;-64
2022/09/06 10:35:48;;;;;;;3.78;3.08;;;;;;;;;;5027688;28;20111;-63
2022/09/06 10:38:51;;;;;;;5.35;3.22;;;;;;;;;;5024755;28;20057;-63
2022/09/06 10:41:46;;;;;;;3.90;3.15;;;;;;;;;;5028132;28;20133;-65
2022/09/06 10:44:49;;;;;;;7.15;3.08;;;;;;;;;;5028021;28;20065;-62
2022/09/06 10:47:53;;;;;;;4.93;3.00;;;;;;;;;;5028152;28;20145;-63
2022/09/06 10:50:56;;;;;;;5.10;3.00;;;;;;;;;;4945608;29;20046;-63
2022/09/06 10:53:50;;;;;;;4.15;2.70;;;;;;;;;;4927364;29;20090;-61
2022/09/06 10:56:37;;;;;;;5.43;2.88;;;;;;;;;;4947009;29;20067;-62
2022/09/06 10:59:27;;;;;;;6.60;2.92;;;;;;;;;;4937357;28;20039;-62
2022/09/06 11:02:19;;;;;;;3.35;2.85;;;;;;;;;;4949969;28;20469;-60
2022/09/06 11:05:07;;;;;;;3.45;2.83;;;;;;;;;;4988351;28;20038;-62
2022/09/06 11:08:07;;;;;;;4.82;2.75;;;;;;;;;;4975104;28;20105;-62
2022/09/06 11:10:54;;;;;;;5.45;2.55;;;;;;;;;;4987403;28;20042;-62
2022/09/06 11:13:38;;;;;;;4.45;2.65;;;;;;;;;;4987857;28;20427;-61
2022/09/06 11:16:38;;;;;;;3.25;2.58;;;;;;;;;;4989874;28;20069;-62
2022/09/06 11:19:31;;;;;;;4.57;2.90;;;;;;;;;;4982730;28;20594;-59
2022/09/06 11:22:27;;;;;;;5.28;3.03;;;;;;;;;;4987347;28;20557;-62
2022/09/06 11:25:21;;;;;;;4.82;3.03;;;;;;;;;;4988477;28;20076;-62
2022/09/06 11:28:08;;;;;;;4.22;3.00;;;;;;;;;;5027259;28;20053;-60
2022/09/06 11:30:55;;;;;;;3.10;2.78;;;;;;;;;;5034868;28;20041;-64
2022/09/06 11:33:40;;;;;;;3.70;2.95;;;;;;;;;;5042121;28;20068;-62
2022/09/06 11:36:36;;;;;;;6.15;3.20;;;;;;;;;;5041742;28;20091;-67
2022/09/06 11:39:35;;;;;;;6.32;2.90;;;;;;;;;;5038550;28;20048;-64
2022/09/06 11:42:38;;;;;;;13.63;2.75;;;;;;;;;;5039787;28;20108;-63
2022/09/06 11:45:44;;;;;;;6.13;3.60;;;;;;;;;;5043998;28;20072;-64
2022/09/06 11:48:33;;;;;;;3.58;3.15;;;;;;;;;;5050925;28;20045;-63
2022/09/06 11:51:30;;;;;;;4.60;2.92;;;;;;;;;;5046955;28;20473;-65
2022/09/06 11:54:18;;;;;;;3.55;2.95;;;;;;;;;;5047035;28;20045;-64
2022/09/06 11:57:12;;;;;;;3.90;2.90;;;;;;;;;;5042172;28;20472;-65
2022/09/06 12:00:00;;;;;;;3.47;2.88;;;;;;;;;;5048711;28;20484;-65
2022/09/06 12:02:45;;;;;;;4.55;2.95;;;;;;;;;;5049460;28;20041;-65
2022/09/06 12:05:31;;;;;;;5.15;3.67;;;;;;;;;;5042486;28;20055;-64
2022/09/06 12:08:21;;;;;;;8.13;3.33;;;;;;;;;;5044205;28;20049;-64
2022/09/06 12:11:21;;;;;;;4.30;3.15;;;;;;;;;;5037835;28;20491;-65
2022/09/06 12:14:08;;;;;;;4.22;2.83;;;;;;;;;;5041003;28;20124;-67
2022/09/06 12:16:58;;;;;;;4.30;3.03;;;;;;;;;;5039469;28;20033;-64
2022/09/06 12:20:06;;;;;;;4.90;3.90;;;;;;;;;;5041316;28;20042;-63
2022/09/06 12:22:50;;;;;;;6.78;3.50;;;;;;;;;;5032284;28;20049;-66
2022/09/06 12:25:35;;;;;;;3.08;2.55;;;;;;;;;;5046827;28;20486;-62
2022/09/06 12:28:28;;;;;;;4.22;2.97;;;;;;;;;;5047061;28;20041;-66
2022/09/06 12:31:33;;;;;;;3.30;2.80;;;;;;;;;;5044049;28;20393;-64
2022/09/06 12:34:21;;;;;;;4.35;3.22;;;;;;;;;;5045081;28;20045;-66
2022/09/06 12:37:08;;;;;;;6.82;3.60;;;;;;;;;;5041023;28;20036;-66
2022/09/06 12:39:58;;;;;;;6.57;3.28;;;;;;;;;;5039615;28;20045;-66
2022/09/06 12:42:42;;;;;;;;;;;;;;;;;;5036578;28;20048;-65
2022/09/06 12:45:27;;;;;;;3.55;2.88;;;;;;;;;;5035833;28;19960;-64
2022/09/06 12:48:24;;;;;;;4.28;2.95;;;;;;;;;;5044245;28;20037;-62
2022/09/06 12:51:18;;;;;;;4.90;2.65;;;;;;;;;;5035620;28;20070;-66
2022/09/06 12:54:29;;;;;;;6.03;2.53;;;;;;;;;;5041977;28;20075;-66
2022/09/06 12:57:20;;;;;;;3.80;2.78;;;;;;;;;;5043345;28;20384;-67
2022/09/06 13:00:04;;;;;;;3.78;2.22;;;;;;;;;;5036349;28;20120;-66
2022/09/06 13:02:55;;;;;;;3.30;2.55;;;;;;;;;;5049797;28;20084;-66
2022/09/06 13:05:41;;;;;;;5.82;2.40;;;;;;;;;;5037999;28;20042;-64
2022/09/06 13:08:31;;;;;;;5.10;2.40;;;;;;;;;;5045387;28;20470;-51
2022/09/06 13:11:16;;;;;;;3.53;2.53;;;;;;;;;;5045133;28;20043;-65
2022/09/06 13:14:08;;;;;;;9.68;3.05;;;;;;;;;;5048111;28;20364;-64
2022/09/06 13:16:55;;;;;;;3.75;2.67;;;;;;;;;;5045319;28;20108;-63
2022/09/06 13:19:41;;;;;;;4.40;2.95;;;;;;;;;;5046897;28;20047;-66
2022/09/06 13:22:37;;;;;;;3.25;2.42;;;;;;;;;;5045882;28;20045;-64
2022/09/06 13:25:24;;;;;;;2.80;2.28;;;;;;;;;;5039728;28;20210;-65
2022/09/06 13:28:08;;;;;;;5.75;2.35;;;;;;;;;;5035885;28;20044;-65
2022/09/06 13:31:02;;;;;;;5.53;2.03;;;;;;;;;;5047342;28;20043;-65
2022/09/06 13:33:57;;;;;;;3.78;1.88;;;;;;;;;;5045958;28;20503;-64
2022/09/06 13:36:47;;;;;;;2.47;1.90;;;;;;;;;;5044896;28;20037;-64
2022/09/06 13:39:33;;;;;;;4.93;1.85;;;;;;;;;;5041805;28;20065;-66
2022/09/06 13:42:23;;;;;;;3.03;1.88;;;;;;;;;;5045155;28;20059;-64
2022/09/06 13:45:23;;;;;;;3.30;1.63;;;;;;;;;;5047781;28;20095;-65
2022/09/06 13:48:08;;;;;;;4.43;1.63;;;;;;;;;;5046333;28;20052;-64
2022/09/06 13:50:53;;;;;;;2.70;1.80;;;;;;;;;;5050558;28;20112;-64
2022/09/06 13:53:37;;;;;;;2.50;1.60;;;;;;;;;;5046048;28;20391;-64
2022/09/06 13:56:21;;;;;;;2.55;1.75;;;;;;;;;;5051144;28;20037;-66
2022/09/06 13:59:06;;;;;;;3.08;1.92;;;;;;;;;;5052475;28;20125;-65
2022/09/06 14:02:05;;;;;;;2.72;1.70;;;;;;;;;;5038415;28;20142;-63
2022/09/06 14:04:49;;;;;;;3.60;1.90;;;;;;;;;;5046366;28;20064;-65
2022/09/06 14:07:34;;;;;;;3.10;2.03;;;;;;;;;;5040675;28;20075;-64
2022/09/06 14:10:20;;;;;;;2.45;1.73;;;;;;;;;;5052476;28;20047;-65
2022/09/06 14:13:05;;;;;;;2.30;1.73;;;;;;;;;;5048418;28;20172;-65
2022/09/06 14:15:49;;;;;;;2.00;1.52;;;;;;;;;;5041719;28;20064;-65
2022/09/06 14:18:35;;;;;;;3.88;1.80;;;;;;;;;;5049489;28;20033;-65
2022/09/06 14:21:19;;;;;;;4.20;2.03;;;;;;;;;;5051806;28;20056;-65
2022/09/06 14:24:04;;;;;;;3.05;1.92;;;;;;;;;;5047183;28;20511;-65
2022/09/06 14:26:48;;;;;;;1.92;1.65;;;;;;;;;;5043182;28;20069;-64
2022/09/06 14:29:34;;;;;;;4.03;1.95;;;;;;;;;;5051390;28;20045;-64
2022/09/06 14:32:18;;;;;;;2.47;1.98;;;;;;;;;;5043850;28;20630;-65
2022/09/06 14:35:04;;;;;;;4.25;2.63;;;;;;;;;;5045462;28;20037;-64
2022/09/06 14:37:49;;;;;;;5.25;2.88;;;;;;;;;;5051306;28;20067;-63
2022/09/06 14:40:35;;;;;;;3.08;2.10;;;;;;;;;;5043437;28;20043;-64
2022/09/06 14:43:19;;;;;;;5.00;2.35;;;;;;;;;;5043890;28;20045;-64
2022/09/06 14:46:12;;;;;;;4.15;2.10;;;;;;;;;;5046051;28;20068;-62
2022/09/06 14:48:58;;;;;;;2.53;1.80;;;;;;;;;;5043514;28;20128;-66
2022/09/06 14:51:46;;;;;;;6.50;1.75;;;;;;;;;;5039468;28;20053;-64
2022/09/06 14:54:31;;;;;;;2.97;1.73;;;;;;;;;;5046397;28;20037;-65
2022/09/06 14:57:16;;;;;;;1.98;1.63;;;;;;;;;;5045578;28;20041;-64
2022/09/06 15:00:02;;;;;;;5.72;1.98;;;;;;;;;;5045566;28;20045;-65
2022/09/06 15:02:47;;;;;;;2.72;1.83;;;;;;;;;;5047999;28;20088;-66
2022/09/06 15:05:32;;;;;;;3.78;1.85;;;;;;;;;;5049685;28;20523;-65
2022/09/06 15:08:18;;;;;;;3.92;1.95;;;;;;;;;;5051314;28;20045;-64
2022/09/06 15:11:02;;;;;;;2.83;1.80;;;;;;;;;;5034051;28;20099;-64
2022/09/06 15:13:48;;;;;;;3.72;1.92;;;;;;;;;;5042533;28;20503;-64
2022/09/06 15:16:34;;;;;;;3.97;2.00;;;;;;;;;;5047518;28;20044;-65
2022/09/06 15:19:19;;;;;;;2.53;2.08;;;;;;;;;;5040671;28;20170;-65
2022/09/06 15:22:04;;;;;;;5.28;3.00;;;;;;;;;;5049240;28;20029;-63
2022/09/06 15:24:49;;;;;;;4.18;2.22;;;;;;;;;;5044076;28;20455;-64
2022/09/06 15:27:33;;;;;;;5.13;3.00;;;;;;;;;;5047451;28;20049;-64
2022/09/06 15:30:18;;;;;;;2.30;1.85;;;;;;;;;;5049373;28;20033;-65
2022/09/06 15:33:02;;;;;;;2.38;1.85;;;;;;;;;;5048992;28;20554;-64
2022/09/06 15:35:52;;;;;;;2.83;2.03;;;;;;;;;;5042419;28;20424;-63
2022/09/06 15:38:47;;;;;;;3.28;1.73;;;;;;;;;;5049883;28;20049;-63
2022/09/06 15:41:33;;;;;;;3.20;2.10;;;;;;;;;;5041514;28;20141;-64
2022/09/06 15:44:19;;;;;;;9.75;2.53;;;;;;;;;;5039484;28;20131;-64
2022/09/06 15:47:03;;;;;;;2.60;2.00;;;;;;;;;;5037688;28;20076;-63
2022/09/06 15:49:49;;;;;;;3.60;2.00;;;;;;;;;;5041219;28;20037;-64
2022/09/06 15:52:34;;;;;;;2.38;2.03;;;;;;;;;;5035165;28;20124;-66
2022/09/06 15:58:22;;;;;;;1.98;1.70;;;;;;;;;;5039789;28;20041;-65
2022/09/06 16:01:10;;;;;;;1.88;1.50;;;;;;;;;;5042380;28;20160;-66
2022/09/06 16:04:04;;;;;;;3.60;1.77;;;;;;;;;;5022891;28;20064;-66
2022/09/06 16:06:48;;;;;;;3.20;1.63;;;;;;;;;;5056937;28;20124;-65
2022/09/06 16:09:34;;;;;;;3.90;2.05;;;;;;;;;;5045001;28;20056;-66
2022/09/06 16:12:20;;;;;;;4.72;2.05;;;;;;;;;;5040919;28;20041;-67
2022/09/06 16:15:05;;;;;;;5.88;4.05;;;;;;;;;;5034090;28;20044;-67
2022/09/06 16:17:50;;;;;;;2.30;1.70;;;;;;;;;;5043644;28;20046;-65
2022/09/06 16:20:36;;;;;;;3.97;1.80;;;;;;;;;;5046176;28;20559;-66
2022/09/06 16:23:21;;;;;;;3.85;1.80;;;;;;;;;;5036530;28;20504;-66
2022/09/06 16:26:07;;;;;;;3.05;1.85;;;;;;;;;;5036965;28;20116;-67
2022/09/06 16:28:52;;;;;;;3.30;2.05;;;;;;;;;;5048618;28;20120;-67
2022/09/06 16:31:37;;;;;;;2.78;2.22;;;;;;;;;;5047545;28;20055;-66
2022/09/06 16:34:22;;;;;;;3.15;1.75;;;;;;;;;;5033215;28;20136;-67
2022/09/06 16:37:07;;;;;;;2.30;1.98;;;;;;;;;;5044982;28;20129;-65
2022/09/06 16:39:54;;;;;;;4.00;1.85;;;;;;;;;;5045951;28;20172;-64
2022/09/06 16:42:39;;;;;;;3.60;2.53;;;;;;;;;;5046830;28;20472;-65
2022/09/06 16:45:25;;;;;;;4.45;2.20;;;;;;;;;;5043941;28;20495;-66
2022/09/06 16:48:10;;;;;;;2.58;2.00;;;;;;;;;;5044870;28;20466;-65
2022/09/06 16:50:55;;;;;;;3.25;1.77;;;;;;;;;;5041339;28;20063;-66